sensor_id;sensor_type;location;lat;lon;timestamp;P1;durP1;ratioP1;P2;durP2;ratioP2
24729;SDS011;12832;52.392;13.066;2023-05-01T00:01:42;1.00;;;0.90;;
24729;SDS011;12832;52.392;13.066;2023-05-01T00:04:08;0.95;;;0.88;;
24729;SDS011;12832;52.392;13.066;2023-05-01T00:06:34;1.15;;;1.05;;
24729;SDS011;12832;52.392;13.066;2023-05-01T00:09:01;1.00;;;0.90;;
24729;SDS011;12832;52.392;13.066;2023-05-01T00:11:27;1.00;;;0.85;;
24729;SDS011;12832;52.392;13.066;2023-05-01T00:13:53;1.02;;;0.90;;
24729;SDS011;12832;52.392;13.066;2023-05-01T00:16:19;0.93;;;0.90;;
24729;SDS011;12832;52.392;13.066;2023-05-01T00:18:45;1.05;;;0.90;;
24729;SDS011;12832;52.392;13.066;2023-05-01T00:21:12;1.00;;;0.90;;
24729;SDS011;12832;52.392;13.066;2023-05-01T00:23:38;1.10;;;1.00;;
24729;SDS011;12832;52.392;13.066;2023-05-01T00:26:04;1.20;;;1.10;;
24729;SDS011;12832;52.392;13.066;2023-05-01T00:28:30;1.10;;;0.98;;
24729;SDS011;12832;52.392;13.066;2023-05-01T00:30:57;0.90;;;0.80;;
24729;SDS011;12832;52.392;13.066;2023-05-01T00:33:23;1.10;;;0.95;;
24729;SDS011;12832;52.392;13.066;2023-05-01T00:35:49;1.70;;;1.08;;
24729;SDS011;12832;52.392;13.066;2023-05-01T00:38:16;0.90;;;0.90;;
24729;SDS011;12832;52.392;13.066;2023-05-01T00:40:42;1.13;;;1.10;;
24729;SDS011;12832;52.392;13.066;2023-05-01T00:43:12;0.90;;;0.90;;
24729;SDS011;12832;52.392;13.066;2023-05-01T00:45:38;1.10;;;1.00;;
24729;SDS011;12832;52.392;13.066;2023-05-01T00:48:07;1.17;;;1.08;;
24729;SDS011;12832;52.392;13.066;2023-05-01T00:50:34;1.02;;;1.00;;
24729;SDS011;12832;52.392;13.066;2023-05-01T00:53:01;0.90;;;0.90;;
24729;SDS011;12832;52.392;13.066;2023-05-01T00:55:27;0.98;;;0.88;;
24729;SDS011;12832;52.392;13.066;2023-05-01T00:57:54;1.33;;;1.23;;
24729;SDS011;12832;52.392;13.066;2023-05-01T01:00:21;0.90;;;0.90;;
24729;SDS011;12832;52.392;13.066;2023-05-01T01:02:49;0.90;;;0.90;;
24729;SDS011;12832;52.392;13.066;2023-05-01T01:05:16;1.13;;;1.02;;
24729;SDS011;12832;52.392;13.066;2023-05-01T01:07:53;1.05;;;0.95;;
24729;SDS011;12832;52.392;13.066;2023-05-01T01:10:30;1.02;;;0.98;;
24729;SDS011;12832;52.392;13.066;2023-05-01T01:13:13;1.63;;;1.25;;
24729;SDS011;12832;52.392;13.066;2023-05-01T01:15:48;1.10;;;1.00;;
24729;SDS011;12832;52.392;13.066;2023-05-01T01:18:28;1.23;;;1.10;;
24729;SDS011;12832;52.392;13.066;2023-05-01T01:21:22;1.38;;;1.27;;
24729;SDS011;12832;52.392;13.066;2023-05-01T01:26:44;1.10;;;1.00;;
24729;SDS011;12832;52.392;13.066;2023-05-01T01:35:25;1.52;;;1.08;;
24729;SDS011;12832;52.392;13.066;2023-05-01T01:40:30;1.10;;;1.00;;
24729;SDS011;12832;52.392;13.066;2023-05-01T01:43:04;1.40;;;1.30;;
24729;SDS011;12832;52.392;13.066;2023-05-01T01:45:36;1.20;;;1.10;;
24729;SDS011;12832;52.392;13.066;2023-05-01T01:48:07;1.13;;;1.08;;
24729;SDS011;12832;52.392;13.066;2023-05-01T01:50:36;0.82;;;0.80;;
24729;SDS011;12832;52.392;13.066;2023-05-01T01:53:04;1.35;;;1.25;;
24729;SDS011;12832;52.392;13.066;2023-05-01T01:55:33;1.42;;;1.30;;
24729;SDS011;12832;52.392;13.066;2023-05-01T01:58:01;1.42;;;1.33;;
24729;SDS011;12832;52.392;13.066;2023-05-01T02:00:29;1.50;;;1.40;;
24729;SDS011;12832;52.392;13.066;2023-05-01T02:02:57;1.23;;;1.13;;
24729;SDS011;12832;52.392;13.066;2023-05-01T02:05:25;1.50;;;1.40;;
24729;SDS011;12832;52.392;13.066;2023-05-01T02:07:53;1.48;;;1.38;;
24729;SDS011;12832;52.392;13.066;2023-05-01T02:10:21;1.25;;;1.15;;
24729;SDS011;12832;52.392;13.066;2023-05-01T02:12:50;1.30;;;1.20;;
24729;SDS011;12832;52.392;13.066;2023-05-01T02:15:18;1.65;;;1.55;;
24729;SDS011;12832;52.392;13.066;2023-05-01T02:17:46;1.38;;;1.27;;
24729;SDS011;12832;52.392;13.066;2023-05-01T02:20:14;1.30;;;1.20;;
24729;SDS011;12832;52.392;13.066;2023-05-01T02:22:41;1.25;;;1.15;;
24729;SDS011;12832;52.392;13.066;2023-05-01T02:25:09;1.52;;;1.30;;
24729;SDS011;12832;52.392;13.066;2023-05-01T02:27:42;1.27;;;1.17;;
24729;SDS011;12832;52.392;13.066;2023-05-01T02:30:17;1.25;;;1.15;;
24729;SDS011;12832;52.392;13.066;2023-05-01T02:32:43;1.30;;;1.20;;
24729;SDS011;12832;52.392;13.066;2023-05-01T02:35:10;1.17;;;1.08;;
24729;SDS011;12832;52.392;13.066;2023-05-01T02:37:36;1.10;;;1.00;;
24729;SDS011;12832;52.392;13.066;2023-05-01T02:40:03;1.10;;;1.10;;
24729;SDS011;12832;52.392;13.066;2023-05-01T02:42:30;1.27;;;1.17;;
24729;SDS011;12832;52.392;13.066;2023-05-01T02:45:07;1.10;;;1.00;;
24729;SDS011;12832;52.392;13.066;2023-05-01T02:47:37;0.93;;;0.90;;
24729;SDS011;12832;52.392;13.066;2023-05-01T02:50:06;1.05;;;1.00;;
24729;SDS011;12832;52.392;13.066;2023-05-01T02:52:34;1.13;;;1.02;;
24729;SDS011;12832;52.392;13.066;2023-05-01T02:55:02;0.82;;;0.80;;
24729;SDS011;12832;52.392;13.066;2023-05-01T02:57:28;1.20;;;1.10;;
24729;SDS011;12832;52.392;13.066;2023-05-01T02:59:54;1.20;;;1.10;;
24729;SDS011;12832;52.392;13.066;2023-05-01T03:02:21;1.27;;;1.17;;
24729;SDS011;12832;52.392;13.066;2023-05-01T03:04:47;0.90;;;0.90;;
24729;SDS011;12832;52.392;13.066;2023-05-01T03:07:14;1.20;;;1.10;;
24729;SDS011;12832;52.392;13.066;2023-05-01T03:09:40;1.08;;;0.98;;
24729;SDS011;12832;52.392;13.066;2023-05-01T03:12:06;1.02;;;0.93;;
24729;SDS011;12832;52.392;13.066;2023-05-01T03:14:32;1.00;;;1.00;;
24729;SDS011;12832;52.392;13.066;2023-05-01T03:16:59;1.20;;;1.10;;
24729;SDS011;12832;52.392;13.066;2023-05-01T03:19:25;1.30;;;1.20;;
24729;SDS011;12832;52.392;13.066;2023-05-01T03:21:52;1.58;;;1.10;;
24729;SDS011;12832;52.392;13.066;2023-05-01T03:24:18;1.17;;;1.08;;
24729;SDS011;12832;52.392;13.066;2023-05-01T03:26:44;1.13;;;1.02;;
24729;SDS011;12832;52.392;13.066;2023-05-01T03:29:10;1.23;;;1.13;;
24729;SDS011;12832;52.392;13.066;2023-05-01T03:31:37;1.20;;;1.10;;
24729;SDS011;12832;52.392;13.066;2023-05-01T03:34:04;1.00;;;1.00;;
24729;SDS011;12832;52.392;13.066;2023-05-01T03:36:30;0.95;;;0.95;;
24729;SDS011;12832;52.392;13.066;2023-05-01T03:38:58;1.00;;;0.90;;
24729;SDS011;12832;52.392;13.066;2023-05-01T03:41:24;1.13;;;1.00;;
24729;SDS011;12832;52.392;13.066;2023-05-01T03:43:50;1.25;;;1.15;;
24729;SDS011;12832;52.392;13.066;2023-05-01T03:46:16;1.20;;;1.10;;
24729;SDS011;12832;52.392;13.066;2023-05-01T03:48:43;1.20;;;1.10;;
24729;SDS011;12832;52.392;13.066;2023-05-01T03:51:09;1.20;;;1.10;;
24729;SDS011;12832;52.392;13.066;2023-05-01T03:53:35;1.35;;;1.25;;
24729;SDS011;12832;52.392;13.066;2023-05-01T03:56:02;1.00;;;1.00;;
24729;SDS011;12832;52.392;13.066;2023-05-01T03:58:29;1.15;;;1.05;;
24729;SDS011;12832;52.392;13.066;2023-05-01T04:00:55;1.20;;;1.10;;
24729;SDS011;12832;52.392;13.066;2023-05-01T04:03:23;1.23;;;1.13;;
24729;SDS011;12832;52.392;13.066;2023-05-01T04:05:49;1.20;;;1.10;;
24729;SDS011;12832;52.392;13.066;2023-05-01T04:08:15;1.23;;;1.10;;
24729;SDS011;12832;52.392;13.066;2023-05-01T04:10:41;1.20;;;1.10;;
24729;SDS011;12832;52.392;13.066;2023-05-01T04:13:07;0.98;;;0.98;;
24729;SDS011;12832;52.392;13.066;2023-05-01T04:15:34;1.20;;;1.10;;
24729;SDS011;12832;52.392;13.066;2023-05-01T04:18:00;1.48;;;1.35;;
24729;SDS011;12832;52.392;13.066;2023-05-01T04:20:26;0.90;;;0.90;;
24729;SDS011;12832;52.392;13.066;2023-05-01T04:22:52;1.20;;;1.10;;
24729;SDS011;12832;52.392;13.066;2023-05-01T04:25:19;0.95;;;0.95;;
24729;SDS011;12832;52.392;13.066;2023-05-01T04:27:45;0.80;;;0.80;;
24729;SDS011;12832;52.392;13.066;2023-05-01T04:30:11;1.05;;;1.05;;
24729;SDS011;12832;52.392;13.066;2023-05-01T04:32:37;1.00;;;1.00;;
24729;SDS011;12832;52.392;13.066;2023-05-01T04:35:04;1.20;;;1.10;;
24729;SDS011;12832;52.392;13.066;2023-05-01T04:37:30;0.80;;;0.80;;
24729;SDS011;12832;52.392;13.066;2023-05-01T04:39:56;1.20;;;1.10;;
24729;SDS011;12832;52.392;13.066;2023-05-01T04:42:28;1.20;;;1.10;;
24729;SDS011;12832;52.392;13.066;2023-05-01T04:44:57;1.05;;;1.05;;
24729;SDS011;12832;52.392;13.066;2023-05-01T04:47:27;1.00;;;1.00;;
24729;SDS011;12832;52.392;13.066;2023-05-01T04:49:53;1.20;;;1.10;;
24729;SDS011;12832;52.392;13.066;2023-05-01T04:52:20;1.40;;;1.30;;
24729;SDS011;12832;52.392;13.066;2023-05-01T04:54:46;1.00;;;1.00;;
24729;SDS011;12832;52.392;13.066;2023-05-01T04:57:12;0.95;;;0.95;;
24729;SDS011;12832;52.392;13.066;2023-05-01T04:59:38;0.90;;;0.90;;
24729;SDS011;12832;52.392;13.066;2023-05-01T05:02:04;0.90;;;0.90;;
24729;SDS011;12832;52.392;13.066;2023-05-01T05:04:31;0.90;;;0.90;;
24729;SDS011;12832;52.392;13.066;2023-05-01T05:06:58;0.95;;;0.88;;
24729;SDS011;12832;52.392;13.066;2023-05-01T05:09:24;0.95;;;0.90;;
24729;SDS011;12832;52.392;13.066;2023-05-01T05:11:50;0.80;;;0.80;;
24729;SDS011;12832;52.392;13.066;2023-05-01T05:14:16;1.13;;;1.02;;
24729;SDS011;12832;52.392;13.066;2023-05-01T05:16:42;1.30;;;1.20;;
24729;SDS011;12832;52.392;13.066;2023-05-01T05:19:08;1.10;;;0.90;;
24729;SDS011;12832;52.392;13.066;2023-05-01T05:21:34;1.10;;;1.00;;
24729;SDS011;12832;52.392;13.066;2023-05-01T05:24:01;1.00;;;0.90;;
24729;SDS011;12832;52.392;13.066;2023-05-01T05:26:28;1.38;;;1.27;;
24729;SDS011;12832;52.392;13.066;2023-05-01T05:28:54;1.00;;;0.95;;
24729;SDS011;12832;52.392;13.066;2023-05-01T05:31:20;1.63;;;1.35;;
24729;SDS011;12832;52.392;13.066;2023-05-01T05:33:46;1.20;;;1.10;;
24729;SDS011;12832;52.392;13.066;2023-05-01T05:36:12;1.27;;;1.17;;
24729;SDS011;12832;52.392;13.066;2023-05-01T05:38:38;1.52;;;1.30;;
24729;SDS011;12832;52.392;13.066;2023-05-01T05:41:05;1.80;;;1.30;;
24729;SDS011;12832;52.392;13.066;2023-05-01T05:43:31;1.40;;;1.20;;
24729;SDS011;12832;52.392;13.066;2023-05-01T05:45:57;0.98;;;0.93;;
24729;SDS011;12832;52.392;13.066;2023-05-01T05:48:24;1.42;;;1.33;;
24729;SDS011;12832;52.392;13.066;2023-05-01T05:50:51;1.83;;;1.40;;
24729;SDS011;12832;52.392;13.066;2023-05-01T05:53:18;1.38;;;1.27;;
24729;SDS011;12832;52.392;13.066;2023-05-01T05:55:48;1.73;;;1.50;;
24729;SDS011;12832;52.392;13.066;2023-05-01T05:58:14;1.27;;;1.10;;
24729;SDS011;12832;52.392;13.066;2023-05-01T06:00:48;1.25;;;1.00;;
24729;SDS011;12832;52.392;13.066;2023-05-01T06:03:15;1.70;;;1.33;;
24729;SDS011;12832;52.392;13.066;2023-05-01T06:05:41;2.22;;;1.30;;
24729;SDS011;12832;52.392;13.066;2023-05-01T06:08:08;1.30;;;1.20;;
24729;SDS011;12832;52.392;13.066;2023-05-01T06:10:35;1.50;;;1.25;;
24729;SDS011;12832;52.392;13.066;2023-05-01T06:13:04;1.95;;;1.20;;
24729;SDS011;12832;52.392;13.066;2023-05-01T06:15:39;2.00;;;1.50;;
24729;SDS011;12832;52.392;13.066;2023-05-01T06:18:06;2.15;;;1.55;;
24729;SDS011;12832;52.392;13.066;2023-05-01T06:20:32;2.58;;;1.30;;
24729;SDS011;12832;52.392;13.066;2023-05-01T06:22:58;1.40;;;1.27;;
24729;SDS011;12832;52.392;13.066;2023-05-01T06:25:24;2.05;;;1.38;;
24729;SDS011;12832;52.392;13.066;2023-05-01T06:27:50;2.28;;;1.50;;
24729;SDS011;12832;52.392;13.066;2023-05-01T06:30:17;2.45;;;1.63;;
24729;SDS011;12832;52.392;13.066;2023-05-01T06:32:46;1.63;;;1.52;;
24729;SDS011;12832;52.392;13.066;2023-05-01T06:35:13;1.30;;;1.13;;
24729;SDS011;12832;52.392;13.066;2023-05-01T06:37:39;2.33;;;1.10;;
24729;SDS011;12832;52.392;13.066;2023-05-01T06:40:06;1.65;;;1.55;;
24729;SDS011;12832;52.392;13.066;2023-05-01T06:42:33;2.05;;;1.40;;
24729;SDS011;12832;52.392;13.066;2023-05-01T06:44:59;1.38;;;1.23;;
24729;SDS011;12832;52.392;13.066;2023-05-01T06:47:25;1.85;;;1.60;;
24729;SDS011;12832;52.392;13.066;2023-05-01T06:49:51;1.35;;;1.23;;
24729;SDS011;12832;52.392;13.066;2023-05-01T06:52:17;1.60;;;1.50;;
24729;SDS011;12832;52.392;13.066;2023-05-01T06:54:43;1.73;;;1.40;;
24729;SDS011;12832;52.392;13.066;2023-05-01T06:57:09;2.78;;;1.60;;
24729;SDS011;12832;52.392;13.066;2023-05-01T06:59:36;1.40;;;1.27;;
24729;SDS011;12832;52.392;13.066;2023-05-01T07:02:02;1.70;;;1.60;;
24729;SDS011;12832;52.392;13.066;2023-05-01T07:04:28;2.15;;;1.30;;
24729;SDS011;12832;52.392;13.066;2023-05-01T07:06:56;3.05;;;1.55;;
24729;SDS011;12832;52.392;13.066;2023-05-01T07:09:22;1.55;;;1.20;;
24729;SDS011;12832;52.392;13.066;2023-05-01T07:11:48;3.08;;;1.50;;
24729;SDS011;12832;52.392;13.066;2023-05-01T07:14:15;1.35;;;1.17;;
24729;SDS011;12832;52.392;13.066;2023-05-01T07:16:41;2.95;;;1.58;;
24729;SDS011;12832;52.392;13.066;2023-05-01T07:19:07;1.85;;;1.52;;
24729;SDS011;12832;52.392;13.066;2023-05-01T07:21:33;2.22;;;1.52;;
24729;SDS011;12832;52.392;13.066;2023-05-01T07:23:59;2.25;;;1.70;;
24729;SDS011;12832;52.392;13.066;2023-05-01T07:26:25;1.40;;;1.23;;
24729;SDS011;12832;52.392;13.066;2023-05-01T07:28:52;1.50;;;1.20;;
24729;SDS011;12832;52.392;13.066;2023-05-01T07:31:18;1.45;;;1.35;;
24729;SDS011;12832;52.392;13.066;2023-05-01T07:33:44;1.63;;;1.30;;
24729;SDS011;12832;52.392;13.066;2023-05-01T07:36:10;1.33;;;1.13;;
24729;SDS011;12832;52.392;13.066;2023-05-01T07:38:37;1.52;;;1.42;;
24729;SDS011;12832;52.392;13.066;2023-05-01T07:41:03;2.70;;;1.52;;
24729;SDS011;12832;52.392;13.066;2023-05-01T07:43:29;2.50;;;1.60;;
24729;SDS011;12832;52.392;13.066;2023-05-01T07:45:55;1.50;;;1.40;;
24729;SDS011;12832;52.392;13.066;2023-05-01T07:48:23;1.50;;;1.40;;
24729;SDS011;12832;52.392;13.066;2023-05-01T07:50:50;1.80;;;1.35;;
24729;SDS011;12832;52.392;13.066;2023-05-01T07:53:16;1.50;;;1.20;;
24729;SDS011;12832;52.392;13.066;2023-05-01T07:55:43;3.38;;;1.50;;
24729;SDS011;12832;52.392;13.066;2023-05-01T07:58:09;2.15;;;1.38;;
24729;SDS011;12832;52.392;13.066;2023-05-01T08:00:35;2.42;;;1.60;;
24729;SDS011;12832;52.392;13.066;2023-05-01T08:03:02;2.58;;;1.45;;
24729;SDS011;12832;52.392;13.066;2023-05-01T08:05:28;2.50;;;1.55;;
24729;SDS011;12832;52.392;13.066;2023-05-01T08:07:56;1.77;;;1.33;;
24729;SDS011;12832;52.392;13.066;2023-05-01T08:10:22;1.35;;;1.10;;
24729;SDS011;12832;52.392;13.066;2023-05-01T08:12:49;1.50;;;1.40;;
24729;SDS011;12832;52.392;13.066;2023-05-01T08:15:15;1.88;;;1.15;;
24729;SDS011;12832;52.392;13.066;2023-05-01T08:17:41;1.40;;;1.17;;
24729;SDS011;12832;52.392;13.066;2023-05-01T08:20:07;1.88;;;1.25;;
24729;SDS011;12832;52.392;13.066;2023-05-01T08:22:34;2.00;;;1.30;;
24729;SDS011;12832;52.392;13.066;2023-05-01T08:25:00;1.95;;;1.30;;
24729;SDS011;12832;52.392;13.066;2023-05-01T08:27:26;1.73;;;1.48;;
24729;SDS011;12832;52.392;13.066;2023-05-01T08:29:52;1.50;;;1.30;;
24729;SDS011;12832;52.392;13.066;2023-05-01T08:32:19;1.42;;;1.20;;
24729;SDS011;12832;52.392;13.066;2023-05-01T08:34:45;1.55;;;1.40;;
24729;SDS011;12832;52.392;13.066;2023-05-01T08:37:12;1.42;;;1.25;;
24729;SDS011;12832;52.392;13.066;2023-05-01T08:39:38;1.65;;;1.10;;
24729;SDS011;12832;52.392;13.066;2023-05-01T08:42:04;1.90;;;1.33;;
24729;SDS011;12832;52.392;13.066;2023-05-01T08:44:30;1.73;;;1.50;;
24729;SDS011;12832;52.392;13.066;2023-05-01T08:47:05;1.30;;;1.20;;
24729;SDS011;12832;52.392;13.066;2023-05-01T08:49:40;1.48;;;1.30;;
24729;SDS011;12832;52.392;13.066;2023-05-01T08:52:08;1.77;;;1.48;;
24729;SDS011;12832;52.392;13.066;2023-05-01T08:54:38;1.63;;;1.23;;
24729;SDS011;12832;52.392;13.066;2023-05-01T08:57:08;1.38;;;1.27;;
24729;SDS011;12832;52.392;13.066;2023-05-01T08:59:36;2.03;;;1.30;;
24729;SDS011;12832;52.392;13.066;2023-05-01T09:02:04;2.47;;;1.50;;
24729;SDS011;12832;52.392;13.066;2023-05-01T09:04:33;2.50;;;1.55;;
24729;SDS011;12832;52.392;13.066;2023-05-01T09:07:01;1.63;;;1.17;;
24729;SDS011;12832;52.392;13.066;2023-05-01T09:09:28;1.50;;;1.27;;
24729;SDS011;12832;52.392;13.066;2023-05-01T09:11:59;2.08;;;1.30;;
24729;SDS011;12832;52.392;13.066;2023-05-01T09:14:26;2.03;;;1.15;;
24729;SDS011;12832;52.392;13.066;2023-05-01T09:16:54;1.80;;;1.10;;
24729;SDS011;12832;52.392;13.066;2023-05-01T09:19:21;1.70;;;1.42;;
24729;SDS011;12832;52.392;13.066;2023-05-01T09:21:47;2.03;;;1.40;;
24729;SDS011;12832;52.392;13.066;2023-05-01T09:24:13;3.08;;;1.38;;
24729;SDS011;12832;52.392;13.066;2023-05-01T09:26:39;3.17;;;1.35;;
24729;SDS011;12832;52.392;13.066;2023-05-01T09:29:06;1.70;;;1.40;;
24729;SDS011;12832;52.392;13.066;2023-05-01T09:31:34;2.38;;;1.30;;
24729;SDS011;12832;52.392;13.066;2023-05-01T09:34:02;1.83;;;1.35;;
24729;SDS011;12832;52.392;13.066;2023-05-01T09:36:30;1.88;;;1.42;;
24729;SDS011;12832;52.392;13.066;2023-05-01T09:38:58;1.58;;;1.33;;
24729;SDS011;12832;52.392;13.066;2023-05-01T09:41:26;2.50;;;1.33;;
24729;SDS011;12832;52.392;13.066;2023-05-01T09:43:54;2.05;;;1.30;;
24729;SDS011;12832;52.392;13.066;2023-05-01T09:46:21;1.25;;;1.10;;
24729;SDS011;12832;52.392;13.066;2023-05-01T09:48:59;1.30;;;1.00;;
24729;SDS011;12832;52.392;13.066;2023-05-01T09:51:28;1.30;;;1.20;;
24729;SDS011;12832;52.392;13.066;2023-05-01T09:53:56;1.67;;;1.33;;
24729;SDS011;12832;52.392;13.066;2023-05-01T09:56:27;1.55;;;1.10;;
24729;SDS011;12832;52.392;13.066;2023-05-01T09:58:58;1.80;;;1.30;;
24729;SDS011;12832;52.392;13.066;2023-05-01T10:01:43;1.40;;;1.15;;
24729;SDS011;12832;52.392;13.066;2023-05-01T10:04:10;1.92;;;1.63;;
24729;SDS011;12832;52.392;13.066;2023-05-01T10:06:37;2.38;;;1.48;;
24729;SDS011;12832;52.392;13.066;2023-05-01T10:09:05;2.22;;;1.20;;
24729;SDS011;12832;52.392;13.066;2023-05-01T10:11:46;1.75;;;1.40;;
24729;SDS011;12832;52.392;13.066;2023-05-01T10:14:13;1.52;;;1.30;;
24729;SDS011;12832;52.392;13.066;2023-05-01T10:16:40;2.97;;;1.50;;
24729;SDS011;12832;52.392;13.066;2023-05-01T10:19:06;1.85;;;1.20;;
24729;SDS011;12832;52.392;13.066;2023-05-01T10:21:33;1.40;;;1.23;;
24729;SDS011;12832;52.392;13.066;2023-05-01T10:24:00;2.10;;;1.20;;
24729;SDS011;12832;52.392;13.066;2023-05-01T10:26:32;1.38;;;1.10;;
24729;SDS011;12832;52.392;13.066;2023-05-01T10:28:59;2.15;;;1.30;;
24729;SDS011;12832;52.392;13.066;2023-05-01T10:31:26;1.13;;;0.98;;
24729;SDS011;12832;52.392;13.066;2023-05-01T10:33:53;2.13;;;1.60;;
24729;SDS011;12832;52.392;13.066;2023-05-01T10:36:36;1.58;;;1.45;;
24729;SDS011;12832;52.392;13.066;2023-05-01T10:39:24;1.50;;;1.00;;
24729;SDS011;12832;52.392;13.066;2023-05-01T10:42:00;1.35;;;1.23;;
24729;SDS011;12832;52.392;13.066;2023-05-01T10:44:31;1.63;;;1.10;;
24729;SDS011;12832;52.392;13.066;2023-05-01T10:46:59;2.50;;;1.25;;
24729;SDS011;12832;52.392;13.066;2023-05-01T10:50:28;2.05;;;1.60;;
24729;SDS011;12832;52.392;13.066;2023-05-01T10:55:37;1.75;;;1.40;;
24729;SDS011;12832;52.392;13.066;2023-05-01T10:58:04;1.42;;;1.10;;
24729;SDS011;12832;52.392;13.066;2023-05-01T11:00:30;2.20;;;1.45;;
24729;SDS011;12832;52.392;13.066;2023-05-01T11:06:07;1.58;;;1.20;;
24729;SDS011;12832;52.392;13.066;2023-05-01T11:08:36;1.48;;;1.20;;
24729;SDS011;12832;52.392;13.066;2023-05-01T11:13:55;1.52;;;1.13;;
24729;SDS011;12832;52.392;13.066;2023-05-01T11:19:04;2.08;;;1.70;;
24729;SDS011;12832;52.392;13.066;2023-05-01T11:21:32;2.15;;;1.35;;
24729;SDS011;12832;52.392;13.066;2023-05-01T11:24:00;1.50;;;1.17;;
24729;SDS011;12832;52.392;13.066;2023-05-01T11:26:27;1.48;;;1.33;;
24729;SDS011;12832;52.392;13.066;2023-05-01T11:28:58;1.75;;;1.30;;
24729;SDS011;12832;52.392;13.066;2023-05-01T11:31:26;2.13;;;1.08;;
24729;SDS011;12832;52.392;13.066;2023-05-01T11:33:57;2.17;;;1.50;;
24729;SDS011;12832;52.392;13.066;2023-05-01T11:36:24;2.40;;;1.60;;
24729;SDS011;12832;52.392;13.066;2023-05-01T11:38:52;1.85;;;1.48;;
24729;SDS011;12832;52.392;13.066;2023-05-01T11:41:21;2.08;;;1.73;;
24729;SDS011;12832;52.392;13.066;2023-05-01T11:43:49;2.10;;;1.50;;
24729;SDS011;12832;52.392;13.066;2023-05-01T11:46:26;1.48;;;1.38;;
24729;SDS011;12832;52.392;13.066;2023-05-01T11:48:53;2.67;;;1.58;;
24729;SDS011;12832;52.392;13.066;2023-05-01T11:51:23;1.85;;;1.30;;
24729;SDS011;12832;52.392;13.066;2023-05-01T11:53:59;4.03;;;1.92;;
24729;SDS011;12832;52.392;13.066;2023-05-01T11:56:30;2.22;;;1.60;;
24729;SDS011;12832;52.392;13.066;2023-05-01T11:58:58;1.90;;;1.70;;
24729;SDS011;12832;52.392;13.066;2023-05-01T12:01:34;2.63;;;1.38;;
24729;SDS011;12832;52.392;13.066;2023-05-01T12:04:02;1.67;;;1.40;;
24729;SDS011;12832;52.392;13.066;2023-05-01T12:06:42;1.95;;;1.45;;
24729;SDS011;12832;52.392;13.066;2023-05-01T12:09:20;1.58;;;1.48;;
24729;SDS011;12832;52.392;13.066;2023-05-01T12:11:49;2.25;;;1.88;;
24729;SDS011;12832;52.392;13.066;2023-05-01T12:14:18;1.63;;;1.48;;
24729;SDS011;12832;52.392;13.066;2023-05-01T12:16:46;3.53;;;1.60;;
24729;SDS011;12832;52.392;13.066;2023-05-01T12:19:13;1.75;;;1.52;;
24729;SDS011;12832;52.392;13.066;2023-05-01T12:21:40;2.17;;;1.70;;
24729;SDS011;12832;52.392;13.066;2023-05-01T12:24:13;2.10;;;1.70;;
24729;SDS011;12832;52.392;13.066;2023-05-01T12:26:41;2.17;;;1.83;;
24729;SDS011;12832;52.392;13.066;2023-05-01T12:29:08;2.05;;;1.67;;
24729;SDS011;12832;52.392;13.066;2023-05-01T12:31:36;2.17;;;1.83;;
24729;SDS011;12832;52.392;13.066;2023-05-01T12:34:10;2.85;;;2.05;;
24729;SDS011;12832;52.392;13.066;2023-05-01T12:36:37;2.28;;;1.75;;
24729;SDS011;12832;52.392;13.066;2023-05-01T12:39:04;2.25;;;1.70;;
24729;SDS011;12832;52.392;13.066;2023-05-01T12:43:59;2.30;;;1.67;;
24729;SDS011;12832;52.392;13.066;2023-05-01T12:46:25;3.35;;;2.15;;
24729;SDS011;12832;52.392;13.066;2023-05-01T12:48:52;2.30;;;1.92;;
24729;SDS011;12832;52.392;13.066;2023-05-01T12:51:19;2.03;;;1.83;;
24729;SDS011;12832;52.392;13.066;2023-05-01T12:53:46;1.98;;;1.80;;
24729;SDS011;12832;52.392;13.066;2023-05-01T12:56:23;2.05;;;1.60;;
24729;SDS011;12832;52.392;13.066;2023-05-01T12:58:51;2.28;;;1.92;;
24729;SDS011;12832;52.392;13.066;2023-05-01T13:01:24;2.60;;;2.00;;
24729;SDS011;12832;52.392;13.066;2023-05-01T13:03:54;2.05;;;1.70;;
24729;SDS011;12832;52.392;13.066;2023-05-01T13:06:29;3.05;;;2.10;;
24729;SDS011;12832;52.392;13.066;2023-05-01T13:09:05;2.25;;;1.85;;
24729;SDS011;12832;52.392;13.066;2023-05-01T13:11:36;2.42;;;2.10;;
24729;SDS011;12832;52.392;13.066;2023-05-01T13:14:06;2.05;;;1.90;;
24729;SDS011;12832;52.392;13.066;2023-05-01T13:16:33;1.88;;;1.50;;
24729;SDS011;12832;52.392;13.066;2023-05-01T13:19:08;2.30;;;1.90;;
24729;SDS011;12832;52.392;13.066;2023-05-01T13:21:35;1.90;;;1.75;;
24729;SDS011;12832;52.392;13.066;2023-05-01T13:24:01;4.07;;;2.20;;
24729;SDS011;12832;52.392;13.066;2023-05-01T13:26:28;2.08;;;1.73;;
24729;SDS011;12832;52.392;13.066;2023-05-01T13:28:57;2.63;;;1.90;;
24729;SDS011;12832;52.392;13.066;2023-05-01T13:31:25;2.20;;;1.80;;
24729;SDS011;12832;52.392;13.066;2023-05-01T13:33:52;2.30;;;2.10;;
24729;SDS011;12832;52.392;13.066;2023-05-01T13:36:19;2.80;;;1.98;;
24729;SDS011;12832;52.392;13.066;2023-05-01T13:38:53;2.20;;;1.98;;
24729;SDS011;12832;52.392;13.066;2023-05-01T13:41:20;2.53;;;2.17;;
24729;SDS011;12832;52.392;13.066;2023-05-01T13:43:49;1.83;;;1.73;;
24729;SDS011;12832;52.392;13.066;2023-05-01T13:46:17;2.55;;;2.03;;
24729;SDS011;12832;52.392;13.066;2023-05-01T13:48:46;2.20;;;2.00;;
24729;SDS011;12832;52.392;13.066;2023-05-01T13:51:13;2.20;;;1.80;;
24729;SDS011;12832;52.392;13.066;2023-05-01T13:53:44;2.35;;;2.00;;
24729;SDS011;12832;52.392;13.066;2023-05-01T13:56:10;2.10;;;1.90;;
24729;SDS011;12832;52.392;13.066;2023-05-01T13:58:40;2.70;;;1.65;;
24729;SDS011;12832;52.392;13.066;2023-05-01T14:01:14;2.42;;;2.05;;
24729;SDS011;12832;52.392;13.066;2023-05-01T14:03:45;2.10;;;1.90;;
24729;SDS011;12832;52.392;13.066;2023-05-01T14:06:14;2.15;;;1.80;;
24729;SDS011;12832;52.392;13.066;2023-05-01T14:08:42;2.10;;;1.90;;
24729;SDS011;12832;52.392;13.066;2023-05-01T14:11:09;3.03;;;2.00;;
24729;SDS011;12832;52.392;13.066;2023-05-01T14:13:39;2.58;;;1.77;;
24729;SDS011;12832;52.392;13.066;2023-05-01T14:16:06;1.63;;;1.50;;
24729;SDS011;12832;52.392;13.066;2023-05-01T14:18:43;2.55;;;1.90;;
24729;SDS011;12832;52.392;13.066;2023-05-01T14:21:16;1.92;;;1.70;;
24729;SDS011;12832;52.392;13.066;2023-05-01T14:23:43;2.60;;;2.13;;
24729;SDS011;12832;52.392;13.066;2023-05-01T14:26:10;2.03;;;1.83;;
24729;SDS011;12832;52.392;13.066;2023-05-01T14:28:41;1.63;;;1.50;;
24729;SDS011;12832;52.392;13.066;2023-05-01T14:33:56;2.05;;;1.60;;
24729;SDS011;12832;52.392;13.066;2023-05-01T14:36:24;2.13;;;1.80;;
24729;SDS011;12832;52.392;13.066;2023-05-01T14:38:56;2.03;;;1.83;;
24729;SDS011;12832;52.392;13.066;2023-05-01T14:41:22;1.98;;;1.80;;
24729;SDS011;12832;52.392;13.066;2023-05-01T14:43:49;2.10;;;1.55;;
24729;SDS011;12832;52.392;13.066;2023-05-01T14:46:23;2.20;;;1.70;;
24729;SDS011;12832;52.392;13.066;2023-05-01T14:48:53;1.60;;;1.50;;
24729;SDS011;12832;52.392;13.066;2023-05-01T14:51:20;2.00;;;1.55;;
24729;SDS011;12832;52.392;13.066;2023-05-01T14:53:46;2.50;;;1.67;;
24729;SDS011;12832;52.392;13.066;2023-05-01T14:56:12;2.17;;;1.95;;
24729;SDS011;12832;52.392;13.066;2023-05-01T14:58:38;2.00;;;1.80;;
24729;SDS011;12832;52.392;13.066;2023-05-01T15:01:04;1.70;;;1.52;;
24729;SDS011;12832;52.392;13.066;2023-05-01T15:03:31;1.70;;;1.60;;
24729;SDS011;12832;52.392;13.066;2023-05-01T15:06:00;1.75;;;1.55;;
24729;SDS011;12832;52.392;13.066;2023-05-01T15:08:26;1.38;;;1.20;;